VCL weather

Chu Lai International Airport
Dung Quat Bay, Quang Ngai Province, Vietnam

Public forecast

Using degrees Celsius for public forecast. Weather courtesy of forecast.io.

METAR (pilot weather report)

Closest report is Da Nang International Airport, 48.4 nm (89.5 km) NW. Retrieved 2019/03/26 01:30 UTC (9 minutes ago):

VVDN 260130Z 34004KT 310V020 8000 FEW015 SCT060 27/22 Q1018 NOSIG

TAF (pilot weather forecast)

Forecast is more than 12 hours old.

Closest forecast is Da Nang International Airport, 48.4 nm (89.5 km) NW. Retrieved 2019/03/25 00:36 UTC (1 day ago):

TAF VVDN 252300Z 2600/2624 35006KT 4000 BR FEW013 SCT060 BECMG 2600/2601 6000 NSW BECMG 2620/2622 4000 BR